Time;durP1;ratioP1;P1;durP2;ratioP2;P2;SDS_P1;SDS_P2;PMS_P1;PMS_P2;Temp;Humidity;BMP_temperature;BMP_pressure;BME280_temperature;BME280_humidity;BME280_pressure;Samples;Min_cycle;Max_cycle;Signal;HPM_P1;HPM_P2
2021/01/07 00:00:49;;;;;;;13.35;9.32;;;;;;;4.40;64.72;100003.91;5092023;28;20479;-66
2021/01/07 00:03:16;;;;;;;16.10;9.70;;;;;;;4.39;65.23;100003.09;5092526;28;20056;-66
2021/01/07 00:05:46;;;;;;;13.55;8.57;;;;;;;4.44;64.46;100005.00;5092257;28;20063;-66
2021/01/07 00:08:16;;;;;;;;;;;;;;;4.47;64.41;99999.75;5093047;28;20059;-66
2021/01/07 00:10:43;;;;;;;14.32;9.57;;;;;;;4.43;63.95;100009.69;5092291;28;19943;-66
2021/01/07 00:13:10;;;;;;;19.00;10.55;;;;;;;4.40;64.63;100001.97;5092706;28;20044;-66
2021/01/07 00:15:37;;;;;;;15.57;10.48;;;;;;;4.34;64.66;100000.34;5091414;28;20484;-66
2021/01/07 00:18:06;;;;;;;15.10;10.45;;;;;;;4.34;64.88;100005.88;5092604;28;20052;-67
2021/01/07 00:20:36;;;;;;;14.57;10.25;;;;;;;4.32;65.24;100010.84;5091851;28;20055;-66
2021/01/07 00:23:03;;;;;;;13.10;8.25;;;;;;;4.25;65.30;100002.06;5092023;28;20415;-66
2021/01/07 00:25:31;;;;;;;11.93;8.30;;;;;;;4.24;65.11;100001.25;5091369;28;20056;-66
2021/01/07 00:28:03;;;;;;;13.02;9.02;;;;;;;4.26;65.56;100009.22;5092559;28;20079;-66
2021/01/07 00:30:30;;;;;;;11.75;8.25;;;;;;;4.31;65.12;99995.41;5092261;28;20048;-66
2021/01/07 00:32:59;;;;;;;11.43;7.20;;;;;;;4.31;65.12;99997.38;5091839;28;20430;-66
2021/01/07 00:35:26;;;;;;;12.00;7.72;;;;;;;4.36;64.95;100000.06;5092165;28;20391;-66
2021/01/07 00:37:55;;;;;;;11.32;8.00;;;;;;;4.38;64.50;100000.63;5091811;28;20063;-66
2021/01/07 00:40:25;;;;;;;11.55;7.40;;;;;;;4.40;64.49;99992.88;5091934;28;20052;-66
2021/01/07 00:42:52;;;;;;;12.57;8.40;;;;;;;4.33;64.52;99993.22;5092212;28;20044;-66
2021/01/07 00:45:19;;;;;;;14.13;8.65;;;;;;;4.34;64.91;99999.53;5092452;28;20055;-66
2021/01/07 00:47:48;;;;;;;12.90;8.55;;;;;;;4.32;64.87;99990.72;5092441;28;20055;-66
2021/01/07 00:50:15;;;;;;;13.10;9.05;;;;;;;4.32;64.72;99990.72;5096030;28;20048;-66
2021/01/07 00:52:45;;;;;;;14.40;9.20;;;;;;;4.34;65.09;99992.09;5096693;28;20059;-66
2021/01/07 00:55:17;;;;;;;14.57;9.57;;;;;;;4.37;65.47;99990.72;5095900;28;20484;-66
2021/01/07 00:57:45;;;;;;;13.45;9.00;;;;;;;4.36;65.11;99992.63;5095478;28;20471;-66
2021/01/07 01:00:18;;;;;;;12.57;8.70;;;;;;;4.37;64.89;99983.25;5095398;28;20048;-66
2021/01/07 01:02:45;;;;;;;17.52;10.25;;;;;;;4.38;64.95;99993.16;5096187;28;20056;-66
2021/01/07 01:05:13;;;;;;;15.65;9.88;;;;;;;4.40;65.12;99987.38;5095689;28;20507;-66
2021/01/07 01:07:40;;;;;;;15.43;9.18;;;;;;;4.37;65.03;99987.97;5095462;28;20423;-66
2021/01/07 01:10:08;;;;;;;18.27;10.20;;;;;;;4.37;64.66;99988.78;5095615;28;20052;-66
2021/01/07 01:12:39;;;;;;;17.55;11.10;;;;;;;4.38;64.86;99990.41;5095021;28;20051;-67
2021/01/07 01:15:09;;;;;;;16.05;10.20;;;;;;;4.40;65.17;99988.19;5096469;28;20047;-66
2021/01/07 01:17:36;;;;;;;;;;;;;;;4.36;65.07;99987.09;5096202;28;20052;-66
2021/01/07 01:20:05;;;;;;;15.02;10.18;;;;;;;4.37;65.03;99990.72;5095475;28;19920;-66
2021/01/07 01:22:35;;;;;;;17.63;10.57;;;;;;;4.38;65.42;99984.91;5095012;28;20051;-66
2021/01/07 01:25:07;;;;;;;16.15;10.27;;;;;;;4.40;65.40;99990.94;5094149;28;20052;-66
2021/01/07 01:27:35;;;;;;;16.25;10.18;;;;;;;4.39;65.08;99983.78;5094643;28;20058;-66
2021/01/07 01:30:04;;;;;;;16.90;10.23;;;;;;;4.38;65.46;99990.41;5095221;28;20048;-66
2021/01/07 01:32:33;;;;;;;16.20;10.43;;;;;;;4.39;65.77;99988.47;5094969;28;20388;-66
2021/01/07 01:35:00;;;;;;;16.07;9.90;;;;;;;4.43;64.96;99986.78;5094779;28;20389;-66
2021/01/07 01:37:27;;;;;;;17.60;10.70;;;;;;;4.45;66.01;99990.94;5094650;28;20469;-66
2021/01/07 01:39:55;;;;;;;17.83;11.90;;;;;;;4.44;65.14;99986.50;5094683;28;20393;-66
2021/01/07 01:42:25;;;;;;;18.42;12.90;;;;;;;4.41;65.82;99991.75;5094087;28;20056;-66
2021/01/07 01:44:53;;;;;;;19.83;13.00;;;;;;;4.42;65.37;99996.19;5094429;28;20052;-66
2021/01/07 01:47:20;;;;;;;19.80;12.40;;;;;;;4.41;65.84;99989.00;5095122;28;20048;-66
2021/01/07 01:49:51;;;;;;;21.13;12.45;;;;;;;4.44;65.69;99988.44;5094982;28;20052;-66
2021/01/07 01:52:18;;;;;;;23.05;14.35;;;;;;;4.45;65.55;99988.19;5094515;28;20052;-65
2021/01/07 01:54:47;;;;;;;21.20;13.75;;;;;;;4.47;65.61;99983.19;5094056;28;20508;-66
2021/01/07 01:57:16;;;;;;;27.25;16.05;;;;;;;4.49;65.45;99985.66;5094477;28;20074;-66
2021/01/07 01:59:45;;;;;;;23.65;14.07;;;;;;;4.46;65.45;99984.28;5094493;28;20047;-66
2021/01/07 02:02:15;;;;;;;19.73;13.07;;;;;;;4.42;65.38;99988.72;5094023;28;20047;-65
2021/01/07 02:04:41;;;;;;;19.38;12.55;;;;;;;4.38;65.19;99981.31;5094308;28;20056;-65
2021/01/07 02:07:10;;;;;;;18.42;11.73;;;;;;;4.34;65.14;99985.75;5094420;28;20492;-65
2021/01/07 02:09:37;;;;;;;21.90;13.05;;;;;;;4.34;65.65;99989.31;5094953;28;20056;-65
2021/01/07 02:12:05;;;;;;;18.38;11.90;;;;;;;4.32;66.48;99985.22;5094776;28;20055;-65
2021/01/07 02:14:32;;;;;;;17.98;11.05;;;;;;;4.26;66.17;99981.66;5095477;28;20056;-65
2021/01/07 02:17:01;;;;;;;18.80;11.60;;;;;;;4.24;65.87;99981.97;5093323;28;20415;-65
2021/01/07 02:19:31;;;;;;;15.33;10.00;;;;;;;4.23;65.93;99990.50;5095193;28;20056;-65
2021/01/07 02:21:59;;;;;;;14.45;9.45;;;;;;;4.21;65.59;99985.28;5094760;28;20048;-65
2021/01/07 02:24:27;;;;;;;13.65;8.27;;;;;;;4.22;65.36;99980.56;5093730;28;20066;-65
2021/01/07 02:26:56;;;;;;;14.43;8.55;;;;;;;4.19;65.14;99981.16;5094820;28;20056;-65
2021/01/07 02:29:23;;;;;;;14.13;8.43;;;;;;;4.20;65.58;99983.63;5094013;28;20052;-65
2021/01/07 02:31:50;;;;;;;15.43;8.57;;;;;;;4.22;65.89;99986.09;5094374;28;20043;-65
2021/01/07 02:34:17;;;;;;;13.23;8.52;;;;;;;4.20;65.30;99985.53;5094374;28;20055;-65
2021/01/07 02:36:44;;;;;;;12.93;7.70;;;;;;;4.19;64.68;99981.16;5093559;28;20059;-65
2021/01/07 02:39:12;;;;;;;12.82;8.25;;;;;;;4.15;65.40;99989.16;5093190;28;20059;-65
2021/01/07 02:41:39;;;;;;;11.88;6.45;;;;;;;4.14;64.86;99975.69;5093549;28;20055;-65
2021/01/07 02:44:06;;;;;;;10.98;7.13;;;;;;;4.11;65.34;99984.50;5093953;28;20499;-65
2021/01/07 02:46:34;;;;;;;15.48;8.43;;;;;;;4.11;65.65;99979.81;5093542;28;20488;-65
2021/01/07 02:49:01;;;;;;;13.65;8.23;;;;;;;4.12;65.39;99969.63;5093538;28;20048;-65
2021/01/07 02:51:28;;;;;;;13.75;8.38;;;;;;;4.13;65.36;99983.09;5093321;28;20056;-65
2021/01/07 02:53:55;;;;;;;13.95;8.38;;;;;;;4.11;65.96;99979.81;5093288;28;20051;-65
2021/01/07 02:56:25;;;;;;;18.27;10.95;;;;;;;4.12;66.15;99975.13;5093409;28;20388;-65
2021/01/07 02:58:51;;;;;;;;;;;;;;;4.13;65.58;99977.59;5094669;28;20060;-65
2021/01/07 03:01:18;;;;;;;14.57;8.38;;;;;;;4.14;65.73;99970.97;5093416;28;20261;-65
2021/01/07 03:03:45;;;;;;;13.00;8.60;;;;;;;4.18;65.20;99974.81;5092985;28;20360;-66
2021/01/07 03:06:12;;;;;;;13.98;8.85;;;;;;;4.16;65.28;99966.00;5093574;28;20052;-66
2021/01/07 03:08:39;;;;;;;14.93;8.93;;;;;;;4.18;65.09;99960.19;5093407;28;20048;-66
2021/01/07 03:11:06;;;;;;;16.10;9.88;;;;;;;4.23;64.89;99962.94;5093823;28;20048;-66
2021/01/07 03:13:34;;;;;;;18.33;9.77;;;;;;;4.26;65.28;99954.09;5092319;28;20056;-66
2021/01/07 03:16:00;;;;;;;16.63;9.65;;;;;;;4.28;65.52;99957.38;5093356;28;20068;-66
2021/01/07 03:18:27;;;;;;;17.50;10.57;;;;;;;4.30;64.91;99957.91;5092817;28;20052;-66
2021/01/07 03:20:54;;;;;;;14.23;9.25;;;;;;;4.35;65.51;99952.38;5092960;28;20051;-66
2021/01/07 03:23:23;;;;;;;17.33;9.63;;;;;;;4.36;64.49;99953.22;5092753;28;20055;-66
2021/01/07 03:25:51;;;;;;;16.08;10.13;;;;;;;4.37;64.59;99949.34;5092153;28;20492;-65
2021/01/07 03:28:18;;;;;;;17.55;10.95;;;;;;;4.41;64.46;99945.72;5093893;28;20044;-66
2021/01/07 03:30:46;;;;;;;17.95;11.45;;;;;;;4.35;65.04;99941.34;5093143;28;20059;-65
2021/01/07 03:33:13;;;;;;;19.17;11.35;;;;;;;4.34;64.42;99944.41;5093105;28;20055;-65
2021/01/07 03:35:41;;;;;;;17.60;11.95;;;;;;;4.29;64.54;99937.00;5092582;28;20056;-66
2021/01/07 03:38:08;;;;;;;20.35;11.70;;;;;;;4.26;64.78;99943.06;5092516;28;20079;-65
2021/01/07 03:40:35;;;;;;;22.15;12.27;;;;;;;4.26;64.73;99932.03;5091878;28;20048;-66
2021/01/07 03:43:01;;;;;;;19.42;10.98;;;;;;;4.29;64.75;99930.66;5093177;28;20048;-66
2021/01/07 03:45:31;;;;;;;21.52;12.32;;;;;;;4.31;64.88;99932.00;5092764;28;20408;-66
2021/01/07 03:48:01;;;;;;;24.80;12.80;;;;;;;4.37;65.28;99936.38;5093013;28;20499;-65
2021/01/07 03:50:30;;;;;;;17.70;11.63;;;;;;;4.41;65.12;99926.44;5093762;28;20462;-66
2021/01/07 03:52:57;;;;;;;24.83;11.38;;;;;;;4.43;64.97;99926.13;5092896;28;20044;-66
2021/01/07 03:55:27;;;;;;;18.30;11.45;;;;;;;4.47;64.92;99932.72;5092065;28;20139;-66
2021/01/07 03:57:54;;;;;;;21.13;11.68;;;;;;;4.47;64.92;99922.53;5093032;28;20058;-66
2021/01/07 04:00:21;;;;;;;19.70;11.82;;;;;;;4.50;64.82;99931.34;5092417;28;20052;-66
2021/01/07 04:02:48;;;;;;;18.23;11.02;;;;;;;4.48;65.11;99924.16;5092413;28;20055;-66
2021/01/07 04:05:16;;;;;;;15.63;10.95;;;;;;;4.54;65.07;99932.41;5092344;28;20476;-66
2021/01/07 04:07:48;;;;;;;16.40;10.95;;;;;;;4.55;64.14;99917.50;5092216;28;20056;-66
2021/01/07 04:10:18;;;;;;;18.98;10.93;;;;;;;4.52;63.94;99921.66;5091975;28;20056;-66
2021/01/07 04:12:48;;;;;;;19.42;11.95;;;;;;;4.48;64.59;99917.81;5092524;28;20385;-66
2021/01/07 04:15:15;;;;;;;19.33;11.40;;;;;;;4.52;64.78;99918.09;5092179;28;20059;-66
2021/01/07 04:17:42;;;;;;;21.25;12.63;;;;;;;4.53;64.14;99916.97;5092274;28;20052;-66
2021/01/07 04:20:10;;;;;;;20.92;13.98;;;;;;;4.46;64.42;99914.53;5091958;28;20052;-66
2021/01/07 04:22:42;;;;;;;17.35;11.70;;;;;;;4.48;64.09;99909.56;5092355;28;20044;-66
2021/01/07 04:25:10;;;;;;;20.92;12.93;;;;;;;4.32;64.13;99906.06;5094832;28;20052;-66
2021/01/07 04:27:37;;;;;;;20.58;12.63;;;;;;;4.30;64.89;99911.06;5096262;28;20407;-66
2021/01/07 04:30:09;;;;;;;21.38;13.43;;;;;;;4.31;64.57;99904.44;5095343;28;20377;-66
2021/01/07 04:32:36;;;;;;;19.80;13.25;;;;;;;4.30;64.87;99900.03;5095702;28;20052;-66
2021/01/07 04:35:05;;;;;;;22.20;12.38;;;;;;;4.33;64.85;99902.22;5097306;28;20427;-66
2021/01/07 04:37:32;;;;;;;19.23;13.25;;;;;;;4.36;65.28;99898.06;5096672;28;20051;-66
2021/01/07 04:40:00;;;;;;;21.58;13.60;;;;;;;4.38;64.91;99901.34;5095982;28;20063;-66
2021/01/07 04:42:27;;;;;;;20.73;13.75;;;;;;;4.40;65.12;99902.72;5096436;28;20408;-66
2021/01/07 04:44:56;;;;;;;20.25;13.40;;;;;;;4.35;64.87;99902.75;5095360;28;20047;-66
2021/01/07 04:47:24;;;;;;;18.77;13.30;;;;;;;4.38;64.98;99899.41;5095500;28;20396;-66
2021/01/07 04:49:51;;;;;;;21.63;13.68;;;;;;;4.41;65.25;99896.09;5096087;28;20056;-65
2021/01/07 04:52:18;;;;;;;21.58;13.43;;;;;;;4.39;64.75;99898.31;5095909;28;20055;-66
2021/01/07 04:54:45;;;;;;;25.27;15.35;;;;;;;4.36;64.27;99898.88;5095791;28;20047;-66
2021/01/07 04:57:16;;;;;;;26.63;16.38;;;;;;;4.35;64.68;99893.69;5096059;28;20051;-66
2021/01/07 04:59:46;;;;;;;25.85;15.73;;;;;;;4.38;64.87;99898.59;5095909;28;20060;-66
2021/01/07 05:02:14;;;;;;;27.90;17.00;;;;;;;4.40;64.99;99899.94;5095121;28;20056;-66
2021/01/07 05:04:48;;;;;;;26.38;17.00;;;;;;;4.40;65.43;99893.63;5095564;28;20456;-66
2021/01/07 05:07:18;;;;;;;30.33;18.70;;;;;;;4.41;64.74;99893.34;5095395;28;20048;-66
2021/01/07 05:09:47;;;;;;;25.90;16.63;;;;;;;4.47;65.29;99891.34;5095371;28;20055;-66
2021/01/07 05:12:15;;;;;;;29.83;18.00;;;;;;;4.48;65.31;99884.75;5095405;28;20051;-66
2021/01/07 05:14:43;;;;;;;31.02;19.02;;;;;;;4.52;65.16;99887.75;5095674;28;20522;-66
2021/01/07 05:17:11;;;;;;;29.20;19.10;;;;;;;4.53;66.19;99883.88;5094892;28;20052;-66
2021/01/07 05:19:39;;;;;;;33.28;19.83;;;;;;;4.52;66.21;99879.47;5095296;28;20063;-66
2021/01/07 05:22:06;;;;;;;30.38;17.23;;;;;;;4.47;66.62;99883.06;5095422;28;20043;-66
2021/01/07 05:24:35;;;;;;;33.20;20.50;;;;;;;4.35;67.35;99885.41;5094199;28;20528;-66
2021/01/07 05:27:08;;;;;;;36.05;22.67;;;;;;;4.31;68.29;99887.91;5095458;28;20059;-66
2021/01/07 05:29:42;;;;;;;35.17;21.13;;;;;;;4.34;67.52;99886.50;5095395;28;20051;-66
2021/01/07 05:32:10;;;;;;;40.67;23.60;;;;;;;4.28;68.40;99885.69;5094889;28;20455;-66
2021/01/07 05:34:50;;;;;;;37.58;22.95;;;;;;;4.25;68.24;99880.78;5094535;28;20063;-66
2021/01/07 05:37:18;;;;;;;37.05;21.42;;;;;;;4.22;68.71;99881.34;5094177;28;20052;-66
2021/01/07 05:39:46;;;;;;;37.17;22.13;;;;;;;4.23;68.50;99877.47;5094678;28;20052;-66
2021/01/07 05:42:15;;;;;;;37.28;22.15;;;;;;;4.24;68.39;99876.34;5094737;28;20052;-66
2021/01/07 05:44:44;;;;;;;37.10;22.92;;;;;;;4.27;68.59;99879.38;5094637;28;20052;-66
2021/01/07 05:47:14;;;;;;;34.80;21.88;;;;;;;4.29;68.52;99879.09;5094647;28;20052;-66
2021/01/07 05:49:41;;;;;;;34.97;20.73;;;;;;;4.28;67.96;99871.91;5096206;28;20052;-66
2021/01/07 05:52:08;;;;;;;39.90;22.15;;;;;;;4.29;67.61;99876.34;5093391;28;20052;-66
2021/01/07 05:54:35;;;;;;;37.50;22.60;;;;;;;4.22;67.43;99886.84;5094251;28;20059;-66
2021/01/07 05:57:07;;;;;;;34.08;20.98;;;;;;;4.25;67.84;99878.84;5094202;28;20067;-66
2021/01/07 05:59:36;;;;;;;38.05;23.48;;;;;;;4.27;67.41;99884.88;5094260;28;20056;-66
2021/01/07 06:02:08;;;;;;;36.22;22.00;;;;;;;4.30;67.51;99880.72;5093780;28;20056;-66
2021/01/07 06:04:38;;;;;;;34.17;22.00;;;;;;;4.30;67.42;99875.22;5093945;28;20408;-66
2021/01/07 06:07:05;;;;;;;32.88;19.35;;;;;;;4.28;66.51;99880.19;5092367;28;20044;-65
2021/01/07 06:09:32;;;;;;;34.58;20.35;;;;;;;4.18;66.86;99878.34;5094825;28;20051;-66
2021/01/07 06:11:59;;;;;;;32.30;19.75;;;;;;;4.05;67.64;99876.22;5093257;28;20052;-66
2021/01/07 06:14:26;;;;;;;33.13;20.45;;;;;;;4.06;67.27;99881.44;5093383;28;20044;-66
2021/01/07 06:16:54;;;;;;;35.92;22.10;;;;;;;4.06;68.24;99878.69;5095439;28;20408;-66
2021/01/07 06:19:31;;;;;;;33.55;20.85;;;;;;;4.09;67.65;99873.72;5094135;28;20055;-66
2021/01/07 06:22:00;;;;;;;35.92;21.33;;;;;;;4.05;67.53;99879.81;5093919;28;20424;-66
2021/01/07 06:24:29;;;;;;;30.65;19.60;;;;;;;4.03;67.80;99872.91;5089328;28;20052;-66
2021/01/07 06:26:58;;;;;;;35.10;20.48;;;;;;;4.04;67.67;99875.41;5083105;28;20049;-66
2021/01/07 06:29:25;;;;;;;33.42;20.48;;;;;;;4.09;67.92;99876.47;5098941;28;20063;-66
2021/01/07 06:31:56;;;;;;;36.08;19.42;;;;;;;4.15;67.34;99881.66;5107977;28;20407;-66
2021/01/07 06:34:26;;;;;;;33.40;20.58;;;;;;;4.21;67.25;99879.72;5110341;28;20385;-66
2021/01/07 06:36:57;;;;;;;35.00;20.10;;;;;;;4.22;67.47;99881.34;5092250;28;20419;-66
2021/01/07 06:39:23;;;;;;;32.47;21.45;;;;;;;4.25;66.70;99881.59;5093590;28;20048;-66
2021/01/07 06:41:53;;;;;;;29.27;19.50;;;;;;;4.29;66.31;99879.09;5073943;28;20060;-65
2021/01/07 06:44:21;;;;;;;32.38;19.25;;;;;;;4.32;66.72;99885.97;5090546;28;20496;-66
2021/01/07 06:46:49;;;;;;;29.80;18.00;;;;;;;4.33;65.75;99880.16;5114234;28;20400;-66
2021/01/07 06:49:22;;;;;;;30.00;17.83;;;;;;;4.34;66.05;99870.78;5076594;28;20416;-66
2021/01/07 06:51:57;;;;;;;28.73;17.83;;;;;;;4.34;65.90;99878.22;5073998;28;20539;-65
2021/01/07 06:54:31;;;;;;;27.85;17.00;;;;;;;4.34;66.03;99878.22;5082180;28;20060;-66
2021/01/07 06:56:59;;;;;;;27.15;17.30;;;;;;;4.36;65.69;99873.25;5065374;28;20044;-66
2021/01/07 06:59:26;;;;;;;27.38;17.00;;;;;;;4.36;64.87;99876.81;5068155;28;20053;-66
2021/01/07 07:01:55;;;;;;;23.83;15.18;;;;;;;4.33;65.15;99874.66;5073007;28;20063;-66
2021/01/07 07:04:26;;;;;;;24.97;16.10;;;;;;;4.37;65.40;99870.22;5073356;28;20048;-66
2021/01/07 07:07:01;;;;;;;30.92;15.30;;;;;;;4.41;65.49;99874.03;5073676;28;20508;-65
2021/01/07 07:09:38;;;;;;;22.63;13.85;;;;;;;4.42;65.44;99869.34;5072829;28;20056;-65
2021/01/07 07:12:06;;;;;;;20.55;13.57;;;;;;;4.45;64.54;99869.59;5072527;28;20048;-66
2021/01/07 07:14:33;;;;;;;22.85;14.73;;;;;;;4.45;64.64;99877.88;5076905;28;20056;-66
2021/01/07 07:17:07;;;;;;;24.95;15.32;;;;;;;4.47;65.23;99881.16;5093325;28;20056;-65
2021/01/07 07:19:37;;;;;;;24.35;14.95;;;;;;;4.48;65.38;99879.22;5093416;28;20063;-66
2021/01/07 07:22:09;;;;;;;22.45;14.13;;;;;;;4.51;65.10;99872.31;5092991;28;20044;-65
2021/01/07 07:24:37;;;;;;;22.52;14.55;;;;;;;4.56;64.66;99875.03;5093084;28;20048;-65
2021/01/07 07:27:08;;;;;;;23.55;13.95;;;;;;;4.61;64.19;99878.53;5093021;28;20055;-65
2021/01/07 07:29:36;;;;;;;20.38;12.82;;;;;;;4.53;64.50;99872.84;5092059;28;20411;-65
2021/01/07 07:32:24;;;;;;;21.17;13.57;;;;;;;4.59;64.77;99879.94;5085683;28;20059;-66
2021/01/07 07:34:52;;;;;;;21.10;13.90;;;;;;;4.60;64.67;99876.06;5093700;28;20052;-65
2021/01/07 07:37:21;;;;;;;21.33;13.43;;;;;;;4.59;64.69;99886.28;5092805;28;20056;-65
2021/01/07 07:39:51;;;;;;;22.20;14.48;;;;;;;4.62;64.76;99879.34;5092814;28;20384;-66
2021/01/07 07:42:20;;;;;;;21.98;14.77;;;;;;;4.67;64.27;99882.09;5092610;28;20423;-66
2021/01/07 07:44:48;;;;;;;20.50;13.85;;;;;;;4.67;64.67;99882.91;5092219;28;20048;-65
2021/01/07 07:47:15;;;;;;;21.42;14.65;;;;;;;4.69;64.63;99885.38;5087276;28;20052;-65
2021/01/07 07:49:42;;;;;;;22.67;14.35;;;;;;;4.64;65.03;99888.16;5092513;28;20495;-38
2021/01/07 07:52:09;;;;;;;22.42;14.05;;;;;;;4.62;65.56;99891.25;5088210;28;20051;-65
2021/01/07 07:54:39;;;;;;;22.33;15.57;;;;;;;4.69;65.10;99890.91;5078854;28;20514;-65
2021/01/07 07:57:08;;;;;;;23.48;14.93;;;;;;;4.72;64.94;99898.59;5077696;28;20056;-65
2021/01/07 07:59:35;;;;;;;25.60;16.30;;;;;;;4.79;64.59;99901.84;5086019;28;20048;-65
2021/01/07 08:02:02;;;;;;;23.65;14.68;;;;;;;4.83;64.58;99891.03;5085554;28;20056;-65
2021/01/07 08:04:29;;;;;;;22.73;14.85;;;;;;;4.83;64.52;99902.06;5080790;28;20060;-65
2021/01/07 08:06:56;;;;;;;23.95;15.18;;;;;;;4.85;64.67;99905.38;5074255;28;20063;-65
2021/01/07 08:09:23;;;;;;;24.17;15.98;;;;;;;4.78;64.52;99904.88;5077868;28;20063;-65
2021/01/07 08:11:52;;;;;;;24.42;15.15;;;;;;;4.85;64.60;99899.84;5080189;28;20388;-65
2021/01/07 08:14:21;;;;;;;27.65;16.58;;;;;;;4.87;64.18;99903.13;5078225;28;20071;-65
2021/01/07 08:16:49;;;;;;;26.67;16.30;;;;;;;4.87;64.22;99903.97;5078365;28;20095;-64
2021/01/07 08:19:19;;;;;;;22.30;14.45;;;;;;;4.94;64.63;99905.59;5090267;28;20047;-65
2021/01/07 08:21:48;;;;;;;24.20;14.38;;;;;;;4.90;64.26;99915.56;5080911;28;20442;-65
2021/01/07 08:24:16;;;;;;;23.27;14.35;;;;;;;4.90;64.71;99908.09;5076010;28;20052;-65
2021/01/07 08:26:45;;;;;;;24.25;14.98;;;;;;;4.93;64.70;99904.72;5077603;28;20052;-65
2021/01/07 08:29:14;;;;;;;28.35;15.75;;;;;;;4.98;64.99;99909.41;5077824;28;20052;-65
2021/01/07 08:31:46;;;;;;;24.55;15.57;;;;;;;5.02;65.18;99910.47;5069854;28;20052;-65
2021/01/07 08:34:13;;;;;;;26.52;15.85;;;;;;;5.04;65.14;99902.69;5070567;28;20405;-65
2021/01/07 08:36:40;;;;;;;26.25;15.80;;;;;;;5.08;65.20;99914.78;5085092;28;20044;-65
2021/01/07 08:39:08;;;;;;;27.50;16.58;;;;;;;5.12;65.08;99904.00;5089531;28;20052;-65
2021/01/07 08:41:35;;;;;;;29.20;18.08;;;;;;;5.13;65.51;99911.19;5080034;28;20048;-65
2021/01/07 08:44:08;;;;;;;31.42;17.95;;;;;;;5.16;65.05;99903.13;5086341;28;20083;-65
2021/01/07 08:46:39;;;;;;;29.75;16.77;;;;;;;5.16;65.18;99900.34;5093209;28;20051;-65
2021/01/07 08:49:07;;;;;;;26.65;15.18;;;;;;;5.13;64.97;99909.25;5078906;28;20520;-65
2021/01/07 08:51:38;;;;;;;25.38;15.73;;;;;;;5.11;64.99;99902.38;5080174;28;20052;-65
2021/01/07 08:54:15;;;;;;;29.52;16.73;;;;;;;5.07;64.83;99902.13;5081220;28;20059;-65
2021/01/07 08:56:43;;;;;;;26.08;16.35;;;;;;;5.06;64.95;99901.31;5073398;28;20048;-65
2021/01/07 08:59:21;;;;;;;27.02;17.08;;;;;;;5.08;64.60;99904.59;5085363;28;20048;-65
2021/01/07 09:01:49;;;;;;;29.13;16.67;;;;;;;5.15;64.37;99906.19;5082552;28;20051;-65
2021/01/07 09:04:27;;;;;;;27.75;16.40;;;;;;;5.25;64.53;99909.66;5086923;28;20047;-65
2021/01/07 09:06:58;;;;;;;27.75;16.85;;;;;;;5.53;63.83;99909.91;5085551;28;20459;-65
2021/01/07 09:09:28;;;;;;;26.02;16.63;;;;;;;5.89;62.86;99907.50;5095725;28;20052;-65
2021/01/07 09:12:19;;;;;;;25.50;16.75;;;;;;;6.31;61.37;99902.22;5082700;28;20059;-65
2021/01/07 09:14:51;;;;;;;28.38;16.92;;;;;;;6.44;60.10;99909.75;5092959;28;20055;-65
2021/01/07 09:17:19;;;;;;;28.90;17.38;;;;;;;6.28;60.52;99909.19;5084194;28;20051;-65
2021/01/07 09:19:47;;;;;;;28.33;16.67;;;;;;;6.21;61.53;99905.16;5083510;28;20052;-65
2021/01/07 09:22:21;;;;;;;27.77;16.08;;;;;;;6.10;61.37;99908.06;5076000;28;20062;-65
2021/01/07 09:24:48;;;;;;;18.88;12.93;;;;;;;6.02;60.23;99905.97;5085419;28;20051;-65
2021/01/07 09:27:17;;;;;;;18.60;12.45;;;;;;;5.92;59.88;99910.78;5093843;28;20051;-66
2021/01/07 09:29:44;;;;;;;19.15;12.35;;;;;;;5.86;60.25;99918.34;5080655;28;20068;-65
2021/01/07 09:32:12;;;;;;;15.02;10.60;;;;;;;5.72;59.57;99918.22;5083375;28;20461;-65
2021/01/07 09:34:40;;;;;;;16.63;10.90;;;;;;;5.70;58.90;99915.75;5077965;28;20358;-65
2021/01/07 09:37:09;;;;;;;17.10;11.23;;;;;;;5.70;59.70;99912.19;5083452;28;20485;-64
2021/01/07 09:39:36;;;;;;;18.42;11.10;;;;;;;5.81;59.68;99913.69;5090869;28;20435;-65
2021/01/07 09:42:04;;;;;;;15.95;10.18;;;;;;;5.83;58.83;99914.19;5083989;28;20056;-65
2021/01/07 09:44:34;;;;;;;15.00;10.13;;;;;;;5.98;58.35;99913.19;5082589;28;20049;-65
2021/01/07 09:47:03;;;;;;;19.15;10.52;;;;;;;6.00;58.63;99916.50;5070391;28;20048;-65
2021/01/07 09:49:31;;;;;;;15.02;9.77;;;;;;;6.06;58.65;99911.72;5078754;28;20052;-65
2021/01/07 09:51:59;;;;;;;16.92;10.70;;;;;;;6.06;58.78;99914.50;5095784;28;20115;-65
2021/01/07 09:54:26;;;;;;;16.55;10.68;;;;;;;6.09;57.85;99909.19;5077211;28;20051;-65
2021/01/07 09:56:55;;;;;;;14.88;10.07;;;;;;;6.22;57.17;99912.34;5101289;28;20056;-65
2021/01/07 09:59:22;;;;;;;14.27;9.48;;;;;;;6.23;56.80;99911.19;5111339;28;20433;-65
2021/01/07 10:01:52;;;;;;;15.27;9.98;;;;;;;6.21;56.81;99902.38;5094391;28;20044;-65
2021/01/07 10:04:19;;;;;;;;;;;;;;;6.29;56.41;99908.06;5094679;28;20044;-65
2021/01/07 10:06:46;;;;;;;10.38;7.00;;;;;;;6.35;56.99;99902.47;5087955;28;19943;-65
2021/01/07 10:09:14;;;;;;;10.45;7.15;;;;;;;6.50;56.43;99902.22;5074159;28;20048;-65
2021/01/07 10:11:40;;;;;;;11.38;7.88;;;;;;;6.58;56.53;99906.25;5084536;28;20059;-65
2021/01/07 10:14:07;;;;;;;10.57;7.03;;;;;;;6.55;56.16;99898.53;5074644;28;20048;-65
2021/01/07 10:16:34;;;;;;;11.50;7.40;;;;;;;6.36;57.30;99907.66;5097534;28;20063;-65
2021/01/07 10:19:01;;;;;;;8.93;5.97;;;;;;;6.40;57.22;99894.88;5113305;28;20066;-65
2021/01/07 10:21:31;;;;;;;12.38;8.95;;;;;;;6.44;57.15;99901.47;5094323;28;20054;-65
2021/01/07 10:23:59;;;;;;;11.23;7.90;;;;;;;6.64;56.36;99893.97;5094730;28;20051;-65
2021/01/07 10:26:29;;;;;;;11.25;7.65;;;;;;;6.79;56.18;99896.47;5088965;28;20056;-64
2021/01/07 10:28:56;;;;;;;;;;;;;;;6.81;56.34;99894.22;5085335;28;20062;-64
2021/01/07 10:31:23;;;;;;;15.15;9.32;;;;;;;6.73;56.88;99891.34;5108228;28;19920;-65
2021/01/07 10:33:52;;;;;;;15.85;11.13;;;;;;;6.67;57.32;99887.81;5112627;28;20052;-64
2021/01/07 10:36:19;;;;;;;18.80;12.48;;;;;;;6.59;57.18;99885.75;5101194;28;20059;-65
2021/01/07 10:38:47;;;;;;;19.02;13.63;;;;;;;6.40;57.65;99880.25;5094539;28;20059;-64
2021/01/07 10:41:15;;;;;;;19.20;12.57;;;;;;;6.34;58.34;99879.53;5099220;28;20054;-64
2021/01/07 10:43:45;;;;;;;20.88;13.93;;;;;;;6.26;58.24;99877.44;5095391;28;20048;-64
2021/01/07 10:46:14;;;;;;;19.65;12.20;;;;;;;6.23;58.42;99869.72;5094209;28;20048;-65
2021/01/07 10:48:43;;;;;;;20.58;14.05;;;;;;;6.26;58.55;99877.44;5084638;28;20119;-64
2021/01/07 10:51:13;;;;;;;19.52;11.75;;;;;;;6.19;58.19;99877.78;5087472;28;20051;-64
2021/01/07 10:54:08;;;;;;;18.70;12.57;;;;;;;6.27;58.73;99868.00;5090116;28;20445;-64
2021/01/07 10:57:06;;;;;;;15.15;11.18;;;;;;;6.34;57.92;99867.63;5094783;28;20044;-64
2021/01/07 10:59:44;;;;;;;15.68;11.05;;;;;;;6.37;58.32;99858.72;5089886;28;20119;-64
2021/01/07 11:02:28;;;;;;;17.10;10.65;;;;;;;6.36;58.15;99866.19;5091915;28;20051;-65
2021/01/07 11:05:09;;;;;;;18.60;11.13;;;;;;;6.28;58.48;99853.88;5098664;28;20214;-64
2021/01/07 11:07:41;;;;;;;14.55;9.23;;;;;;;6.25;58.56;99856.41;5099913;28;20059;-64
2021/01/07 11:10:10;;;;;;;12.88;8.32;;;;;;;6.17;58.50;99848.81;5095669;28;20048;-64
2021/01/07 11:12:41;;;;;;;13.52;9.10;;;;;;;6.22;58.74;99848.72;5087436;28;20055;-65
2021/01/07 11:15:16;;;;;;;12.93;8.95;;;;;;;6.27;57.96;99843.13;5081781;28;20044;-64
2021/01/07 11:17:48;;;;;;;14.70;9.60;;;;;;;6.27;58.14;99845.88;5087318;28;20059;-64
2021/01/07 11:20:15;;;;;;;13.30;8.93;;;;;;;6.22;58.09;99827.44;5084678;28;20404;-66
2021/01/07 11:22:45;;;;;;;12.68;9.35;;;;;;;6.10;58.89;99833.41;5082617;28;20052;-65
2021/01/07 11:25:13;;;;;;;15.57;9.70;;;;;;;6.08;58.79;99837.59;5083917;28;20047;-65
2021/01/07 11:27:40;;;;;;;13.38;9.75;;;;;;;6.02;59.22;99834.09;5081534;28;20392;-65
2021/01/07 11:30:09;;;;;;;14.45;9.98;;;;;;;5.97;59.72;99831.41;5086897;28;20411;-65
2021/01/07 11:32:37;;;;;;;14.20;9.57;;;;;;;5.95;59.74;99827.31;5085326;28;20064;-65
2021/01/07 11:35:07;;;;;;;12.13;8.73;;;;;;;6.00;59.60;99821.69;5084830;28;20067;-65
2021/01/07 11:37:44;;;;;;;13.75;9.73;;;;;;;5.95;60.05;99827.31;5084293;28;20511;-65